N144TA KSMF-KSBP
Flight info
| Callsign | N144TA |
|---|---|
| Flight time | 0h 51m |
| Altitude | 37000 |
| Route | LIN PRB MQO |
| Aircraft | PC24/M-SBDGIRWY/LB2 |
Departure
| Time | 2026-05-05 02:32 |
|---|---|
| Airport | Sacramento International Airport (KSMF) |
Arrival
| Time | 2026-05-05 03:23 |
|---|---|
| Airport | San Luis County Regional Airport (KSBP) |
| Time | Latitude | Longitude | Altitude | Speed | Heading |
|---|---|---|---|---|---|
| 2026-05-05 02:16 | 38.68137 | -121.59716 | 25 ft | 0 kts | 1° |
| 2026-05-05 02:27 | 38.68160 | -121.59770 | 26 ft | 15 kts | 287° |
| 2026-05-05 02:27 | 38.68179 | -121.59875 | 27 ft | 10 kts | 319° |
| 2026-05-05 02:28 | 38.68282 | -121.59887 | 25 ft | 23 kts | 1° |
| 2026-05-05 02:28 | 38.68442 | -121.59885 | 28 ft | 20 kts | 1° |
| 2026-05-05 02:28 | 38.68597 | -121.59884 | 28 ft | 26 kts | 0° |
| 2026-05-05 02:28 | 38.68800 | -121.59881 | 29 ft | 32 kts | 1° |
| 2026-05-05 02:29 | 38.69044 | -121.59876 | 27 ft | 36 kts | 1° |
| 2026-05-05 02:29 | 38.69265 | -121.59873 | 29 ft | 29 kts | 1° |
| 2026-05-05 02:29 | 38.69496 | -121.59870 | 27 ft | 37 kts | 1° |
| 2026-05-05 02:29 | 38.69727 | -121.59865 | 28 ft | 30 kts | 1° |
| 2026-05-05 02:30 | 38.69915 | -121.59862 | 28 ft | 24 kts | 1° |
| 2026-05-05 02:30 | 38.70086 | -121.59858 | 29 ft | 34 kts | 360° |
| 2026-05-05 02:30 | 38.70355 | -121.59854 | 30 ft | 36 kts | 0° |
| 2026-05-05 02:30 | 38.70588 | -121.59850 | 29 ft | 32 kts | 2° |
| 2026-05-05 02:31 | 38.70723 | -121.59965 | 29 ft | 24 kts | 268° |
| 2026-05-05 02:31 | 38.70663 | -121.60113 | 29 ft | 17 kts | 172° |
| 2026-05-05 02:31 | 38.70623 | -121.60111 | 30 ft | 0 kts | 182° |
| 2026-05-05 02:31 | 38.70470 | -121.60116 | 31 ft | 63 kts | 181° |
| 2026-05-05 02:32 | 38.69757 | -121.60128 | 53 ft | 140 kts | 180° |
| 2026-05-05 02:32 | 38.68631 | -121.60176 | 417 ft | 177 kts | 179° |
| 2026-05-05 02:32 | 38.67294 | -121.60198 | 1246 ft | 200 kts | 182° |
| 2026-05-05 02:32 | 38.65911 | -121.60054 | 2417 ft | 198 kts | 163° |
| 2026-05-05 02:33 | 38.64920 | -121.58901 | 3570 ft | 207 kts | 116° |
| 2026-05-05 02:33 | 38.64662 | -121.57073 | 4695 ft | 212 kts | 98° |
| 2026-05-05 02:33 | 38.64398 | -121.55212 | 5852 ft | 214 kts | 106° |
| 2026-05-05 02:33 | 38.63834 | -121.53433 | 6962 ft | 218 kts | 120° |
| 2026-05-05 02:34 | 38.62997 | -121.51798 | 8036 ft | 222 kts | 124° |
| 2026-05-05 02:34 | 38.62040 | -121.50218 | 9091 ft | 227 kts | 132° |
| 2026-05-05 02:34 | 38.60870 | -121.48822 | 10131 ft | 232 kts | 136° |
| 2026-05-05 02:34 | 38.59710 | -121.47416 | 11124 ft | 233 kts | 132° |
| 2026-05-05 02:35 | 38.58574 | -121.45930 | 12133 ft | 234 kts | 130° |
| 2026-05-05 02:35 | 38.57435 | -121.44436 | 13169 ft | 235 kts | 129° |
| 2026-05-05 02:35 | 38.56279 | -121.42938 | 14144 ft | 238 kts | 129° |
| 2026-05-05 02:35 | 38.55113 | -121.41430 | 15081 ft | 239 kts | 129° |
| 2026-05-05 02:36 | 38.53934 | -121.39903 | 16021 ft | 242 kts | 128° |
| 2026-05-05 02:36 | 38.52746 | -121.38366 | 16954 ft | 244 kts | 128° |
| 2026-05-05 02:36 | 38.51548 | -121.36816 | 17894 ft | 247 kts | 127° |
| 2026-05-05 02:36 | 38.50351 | -121.35268 | 18758 ft | 249 kts | 127° |
| 2026-05-05 02:37 | 38.49123 | -121.33682 | 19556 ft | 252 kts | 126° |
| 2026-05-05 02:37 | 38.47882 | -121.32079 | 20379 ft | 255 kts | 126° |
| 2026-05-05 02:37 | 38.46622 | -121.30452 | 21195 ft | 259 kts | 126° |
| 2026-05-05 02:37 | 38.45348 | -121.28809 | 22010 ft | 262 kts | 125° |
| 2026-05-05 02:38 | 38.44054 | -121.27141 | 22817 ft | 265 kts | 125° |
| 2026-05-05 02:38 | 38.42748 | -121.25457 | 23614 ft | 268 kts | 125° |
| 2026-05-05 02:38 | 38.41439 | -121.23772 | 24269 ft | 271 kts | 125° |
| 2026-05-05 02:38 | 38.40100 | -121.22050 | 24931 ft | 274 kts | 125° |
| 2026-05-05 02:39 | 38.38751 | -121.20313 | 25589 ft | 277 kts | 126° |
| 2026-05-05 02:39 | 38.37387 | -121.18560 | 26236 ft | 280 kts | 126° |
| 2026-05-05 02:39 | 38.36006 | -121.16785 | 26869 ft | 283 kts | 126° |
| 2026-05-05 02:39 | 38.34613 | -121.14996 | 27491 ft | 286 kts | 126° |
| 2026-05-05 02:40 | 38.33202 | -121.13186 | 28103 ft | 289 kts | 126° |
| 2026-05-05 02:40 | 38.31794 | -121.11380 | 28707 ft | 292 kts | 127° |
| 2026-05-05 02:40 | 38.30356 | -121.09537 | 29303 ft | 294 kts | 127° |
| 2026-05-05 02:40 | 38.28904 | -121.07677 | 29886 ft | 297 kts | 127° |
| 2026-05-05 02:41 | 38.27438 | -121.05799 | 30394 ft | 300 kts | 127° |
| 2026-05-05 02:41 | 38.25953 | -121.03899 | 30843 ft | 304 kts | 127° |
| 2026-05-05 02:41 | 38.24471 | -121.02004 | 31282 ft | 307 kts | 127° |
| 2026-05-05 02:41 | 38.22954 | -121.00064 | 31717 ft | 310 kts | 128° |
| 2026-05-05 02:42 | 38.21421 | -120.98107 | 32141 ft | 313 kts | 128° |
| 2026-05-05 02:42 | 38.19870 | -120.96128 | 32561 ft | 317 kts | 128° |
| 2026-05-05 02:42 | 38.18304 | -120.94130 | 32962 ft | 320 kts | 129° |
| 2026-05-05 02:42 | 38.16723 | -120.92114 | 33352 ft | 324 kts | 129° |
| 2026-05-05 02:43 | 38.15119 | -120.90071 | 33737 ft | 327 kts | 129° |
| 2026-05-05 02:43 | 38.13520 | -120.88036 | 34089 ft | 331 kts | 130° |
| 2026-05-05 02:43 | 38.11883 | -120.85952 | 34388 ft | 334 kts | 130° |
| 2026-05-05 02:43 | 38.10227 | -120.83848 | 34680 ft | 338 kts | 131° |
| 2026-05-05 02:44 | 38.08556 | -120.81725 | 34975 ft | 341 kts | 131° |
| 2026-05-05 02:44 | 38.06880 | -120.79599 | 35332 ft | 342 kts | 132° |
| 2026-05-05 02:44 | 38.05192 | -120.77456 | 35690 ft | 343 kts | 132° |
| 2026-05-05 02:44 | 38.03502 | -120.75313 | 36051 ft | 344 kts | 133° |
| 2026-05-05 02:45 | 38.01826 | -120.73191 | 36398 ft | 345 kts | 133° |
| 2026-05-05 02:45 | 38.00126 | -120.71038 | 36755 ft | 345 kts | 134° |
| 2026-05-05 02:45 | 37.98416 | -120.68874 | 37005 ft | 350 kts | 134° |
| 2026-05-05 02:46 | 37.94951 | -120.64496 | 36998 ft | 348 kts | 134° |
| 2026-05-05 02:46 | 37.91539 | -120.60189 | 36998 ft | 345 kts | 134° |
| 2026-05-05 02:47 | 37.88123 | -120.55883 | 36998 ft | 347 kts | 134° |
| 2026-05-05 02:47 | 37.84706 | -120.51582 | 37005 ft | 349 kts | 134° |
| 2026-05-05 02:48 | 37.81261 | -120.47251 | 37017 ft | 348 kts | 135° |
| 2026-05-05 02:48 | 37.77846 | -120.42965 | 37013 ft | 346 kts | 135° |
| 2026-05-05 02:49 | 37.74428 | -120.38681 | 37008 ft | 344 kts | 135° |
| 2026-05-05 02:49 | 37.71022 | -120.34418 | 37010 ft | 345 kts | 135° |
| 2026-05-05 02:50 | 37.67611 | -120.30154 | 37011 ft | 346 kts | 135° |
| 2026-05-05 02:50 | 37.64206 | -120.25902 | 37012 ft | 346 kts | 136° |
| 2026-05-05 02:51 | 37.60770 | -120.21620 | 37009 ft | 346 kts | 136° |
| 2026-05-05 02:51 | 37.57916 | -120.18067 | 37013 ft | 347 kts | 136° |
| 2026-05-05 02:52 | 37.54477 | -120.13790 | 37014 ft | 347 kts | 136° |
| 2026-05-05 02:52 | 37.51060 | -120.09547 | 37011 ft | 347 kts | 136° |
| 2026-05-05 02:53 | 37.47613 | -120.05273 | 37012 ft | 347 kts | 136° |
| 2026-05-05 02:53 | 37.44165 | -120.01002 | 37012 ft | 347 kts | 137° |
| 2026-05-05 02:54 | 37.40742 | -119.96770 | 37012 ft | 347 kts | 137° |
| 2026-05-05 02:54 | 37.37290 | -119.92507 | 37009 ft | 347 kts | 137° |
| 2026-05-05 02:55 | 37.33838 | -119.88248 | 37009 ft | 347 kts | 137° |
| 2026-05-05 02:55 | 37.30409 | -119.84026 | 37009 ft | 347 kts | 137° |
| 2026-05-05 02:56 | 37.26949 | -119.79770 | 37002 ft | 347 kts | 137° |
| 2026-05-05 02:56 | 37.23389 | -119.75401 | 37018 ft | 368 kts | 138° |
| 2026-05-05 02:56 | 37.21531 | -119.73121 | 37020 ft | 379 kts | 138° |
| 2026-05-05 02:57 | 37.19646 | -119.70808 | 37018 ft | 388 kts | 138° |
| 2026-05-05 02:57 | 37.15685 | -119.66017 | 37008 ft | 402 kts | 142° |
| 2026-05-05 02:58 | 37.10807 | -119.62511 | 37007 ft | 408 kts | 162° |
| 2026-05-05 02:58 | 37.05240 | -119.61338 | 37009 ft | 405 kts | 182° |
| 2026-05-05 02:59 | 36.99755 | -119.62408 | 37009 ft | 400 kts | 193° |
| 2026-05-05 02:59 | 36.94309 | -119.63856 | 37017 ft | 399 kts | 193° |
| 2026-05-05 03:00 | 36.88866 | -119.65311 | 37017 ft | 400 kts | 193° |
| 2026-05-05 03:00 | 36.83442 | -119.66754 | 37019 ft | 401 kts | 193° |
| 2026-05-05 03:01 | 36.77974 | -119.68208 | 37019 ft | 401 kts | 193° |
| 2026-05-05 03:01 | 36.72537 | -119.69652 | 37014 ft | 397 kts | 193° |
| 2026-05-05 03:02 | 36.67165 | -119.71076 | 37012 ft | 396 kts | 193° |
| 2026-05-05 03:02 | 36.61762 | -119.72507 | 37022 ft | 398 kts | 193° |
| 2026-05-05 03:03 | 36.56320 | -119.73945 | 37020 ft | 399 kts | 193° |
| 2026-05-05 03:03 | 36.50929 | -119.75368 | 37013 ft | 397 kts | 193° |
| 2026-05-05 03:04 | 36.45535 | -119.76790 | 37013 ft | 395 kts | 193° |
| 2026-05-05 03:04 | 36.40148 | -119.78208 | 37013 ft | 396 kts | 193° |
| 2026-05-05 03:05 | 36.34728 | -119.79633 | 37015 ft | 398 kts | 193° |
| 2026-05-05 03:05 | 36.29324 | -119.81051 | 37017 ft | 399 kts | 193° |
| 2026-05-05 03:06 | 36.23894 | -119.82474 | 37016 ft | 396 kts | 193° |
| 2026-05-05 03:06 | 36.18536 | -119.83876 | 37009 ft | 394 kts | 193° |
| 2026-05-05 03:07 | 36.13145 | -119.85286 | 37012 ft | 396 kts | 193° |
| 2026-05-05 03:07 | 36.07726 | -119.86700 | 37014 ft | 398 kts | 194° |
| 2026-05-05 03:08 | 36.02318 | -119.88109 | 37012 ft | 395 kts | 194° |
| 2026-05-05 03:08 | 35.96985 | -119.89497 | 37007 ft | 392 kts | 194° |
| 2026-05-05 03:09 | 35.91617 | -119.90893 | 37009 ft | 394 kts | 194° |
| 2026-05-05 03:09 | 35.86260 | -119.92283 | 37012 ft | 396 kts | 194° |
| 2026-05-05 03:10 | 35.80854 | -119.93684 | 37016 ft | 395 kts | 194° |
| 2026-05-05 03:10 | 35.75492 | -119.95072 | 37014 ft | 392 kts | 194° |
| 2026-05-05 03:11 | 35.70159 | -119.96495 | 37005 ft | 390 kts | 198° |
| 2026-05-05 03:11 | 35.65254 | -119.99204 | 37011 ft | 390 kts | 213° |
| 2026-05-05 03:12 | 35.61162 | -120.03563 | 37020 ft | 389 kts | 229° |
| 2026-05-05 03:12 | 35.57844 | -120.08822 | 37031 ft | 388 kts | 231° |
| 2026-05-05 03:13 | 35.54568 | -120.14025 | 37050 ft | 363 kts | 232° |
| 2026-05-05 03:13 | 35.53228 | -120.16176 | 36390 ft | 284 kts | 232° |
| 2026-05-05 03:13 | 35.52043 | -120.18062 | 33829 ft | 283 kts | 232° |
| 2026-05-05 03:13 | 35.50830 | -120.19979 | 31046 ft | 283 kts | 232° |
| 2026-05-05 03:14 | 35.49639 | -120.21858 | 28297 ft | 273 kts | 231° |
| 2026-05-05 03:14 | 35.48294 | -120.23429 | 25689 ft | 262 kts | 217° |
| 2026-05-05 03:14 | 35.46719 | -120.24457 | 23357 ft | 252 kts | 201° |
| 2026-05-05 03:14 | 35.45043 | -120.24976 | 20928 ft | 244 kts | 194° |
| 2026-05-05 03:15 | 35.43378 | -120.25364 | 18554 ft | 265 kts | 192° |
| 2026-05-05 03:15 | 35.41424 | -120.25810 | 16045 ft | 298 kts | 192° |
| 2026-05-05 03:15 | 35.39326 | -120.26301 | 14379 ft | 313 kts | 192° |
| 2026-05-05 03:15 | 35.37207 | -120.26811 | 13892 ft | 316 kts | 192° |
| 2026-05-05 03:16 | 35.35138 | -120.27314 | 13387 ft | 298 kts | 192° |
| 2026-05-05 03:16 | 35.33092 | -120.27822 | 12405 ft | 299 kts | 192° |
| 2026-05-05 03:16 | 35.31069 | -120.28345 | 11591 ft | 294 kts | 192° |
| 2026-05-05 03:16 | 35.29107 | -120.28872 | 10793 ft | 291 kts | 192° |
| 2026-05-05 03:17 | 35.27163 | -120.29422 | 10240 ft | 280 kts | 192° |
| 2026-05-05 03:17 | 35.25331 | -120.29965 | 10013 ft | 260 kts | 192° |
| 2026-05-05 03:17 | 35.23729 | -120.30695 | 9978 ft | 238 kts | 214° |
| 2026-05-05 03:17 | 35.22653 | -120.32117 | 9991 ft | 222 kts | 231° |
| 2026-05-05 03:18 | 35.21730 | -120.33624 | 9999 ft | 220 kts | 232° |
| 2026-05-05 03:18 | 35.20826 | -120.35121 | 9995 ft | 218 kts | 232° |
| 2026-05-05 03:18 | 35.19940 | -120.36598 | 9958 ft | 218 kts | 232° |
| 2026-05-05 03:18 | 35.19054 | -120.38078 | 9827 ft | 212 kts | 232° |
| 2026-05-05 03:19 | 35.17510 | -120.41140 | 9072 ft | 215 kts | 262° |
| 2026-05-05 03:19 | 35.17781 | -120.42887 | 8737 ft | 206 kts | 291° |
| 2026-05-05 03:19 | 35.18296 | -120.44554 | 7375 ft | 224 kts | 284° |
| 2026-05-05 03:20 | 35.18421 | -120.46525 | 5549 ft | 246 kts | 268° |
| 2026-05-05 03:20 | 35.18341 | -120.48612 | 4125 ft | 241 kts | 268° |
| 2026-05-05 03:20 | 35.18264 | -120.50586 | 3072 ft | 225 kts | 268° |
| 2026-05-05 03:20 | 35.18238 | -120.52367 | 2283 ft | 191 kts | 275° |
| 2026-05-05 03:21 | 35.18416 | -120.53882 | 2016 ft | 170 kts | 287° |
| 2026-05-05 03:21 | 35.18807 | -120.55209 | 1871 ft | 159 kts | 294° |
| 2026-05-05 03:21 | 35.19319 | -120.56378 | 1617 ft | 157 kts | 302° |
| 2026-05-05 03:21 | 35.19940 | -120.57514 | 1398 ft | 165 kts | 306° |
| 2026-05-05 03:22 | 35.20617 | -120.58666 | 1211 ft | 170 kts | 306° |
| 2026-05-05 03:22 | 35.21307 | -120.59845 | 1059 ft | 159 kts | 304° |
| 2026-05-05 03:22 | 35.21844 | -120.60791 | 790 ft | 126 kts | 306° |
| 2026-05-05 03:22 | 35.22342 | -120.61665 | 541 ft | 126 kts | 306° |
| 2026-05-05 03:23 | 35.22840 | -120.62539 | 392 ft | 124 kts | 306° |
| 2026-05-05 03:23 | 35.23311 | -120.63373 | 223 ft | 112 kts | 306° |
| 2026-05-05 03:23 | 35.23689 | -120.64029 | 197 ft | 65 kts | 304° |
| 2026-05-05 03:23 | 35.23826 | -120.64262 | 189 ft | 27 kts | 306° |
| 2026-05-05 03:24 | 35.23832 | -120.64273 | 188 ft | 27 kts | 307° |